Time;durP1;ratioP1;P1;durP2;ratioP2;P2;SDS_P1;SDS_P2;PMS_P1;PMS_P2;Temp;Humidity;BMP_temperature;BMP_pressure;BME280_temperature;BME280_humidity;BME280_pressure;Samples;Min_cycle;Max_cycle;Signal;HPM_P1;HPM_P2
2022/04/11 00:01:15;;;;;;;10.48;8.38;;;;;;;3.99;76.75;101851.03;5094920;28;20096;-70
2022/04/11 00:03:41;;;;;;;15.18;8.05;;;;;;;3.95;77.08;101836.75;5110855;28;20018;-72
2022/04/11 00:06:06;;;;;;;13.38;8.35;;;;;;;3.95;76.28;101841.25;5103019;28;20042;-71
2022/04/11 00:08:32;;;;;;;13.40;8.18;;;;;;;3.93;76.06;101838.63;5094532;28;20032;-69
2022/04/11 00:10:57;;;;;;;14.18;8.77;;;;;;;3.94;76.08;101834.13;5107938;28;20474;-69
2022/04/11 00:13:22;;;;;;;14.77;8.75;;;;;;;3.92;75.52;101836.00;5100591;28;20036;-69
2022/04/11 00:15:48;;;;;;;14.20;8.20;;;;;;;3.90;75.29;101829.75;5097006;28;20040;-70
2022/04/11 00:18:13;;;;;;;12.68;8.38;;;;;;;3.86;75.75;101826.25;5093242;28;20019;-70
2022/04/11 00:20:38;;;;;;;12.48;8.60;;;;;;;3.82;75.23;101824.56;5089814;28;20081;-69
2022/04/11 00:23:06;;;;;;;11.80;8.15;;;;;;;3.82;75.59;101829.97;5105398;28;20024;-73
2022/04/11 00:25:32;;;;;;;12.75;9.02;;;;;;;3.81;75.83;101834.47;5103000;28;20031;-70
2022/04/11 00:27:58;;;;;;;15.52;8.93;;;;;;;3.82;75.11;101828.19;5092071;28;20044;-69
2022/04/11 00:30:23;;;;;;;14.93;10.35;;;;;;;3.82;73.91;101820.09;5097947;28;20065;-69
2022/04/11 00:32:48;;;;;;;13.20;9.65;;;;;;;3.78;73.64;101823.81;5095878;28;20475;-70
2022/04/11 00:35:14;;;;;;;14.43;9.43;;;;;;;3.78;75.76;101813.03;5111078;28;20028;-69
2022/04/11 00:37:40;;;;;;;17.25;10.43;;;;;;;3.79;76.11;101813.91;5108482;28;20024;-70
2022/04/11 00:40:07;;;;;;;16.45;10.52;;;;;;;3.79;75.88;101816.63;5103708;28;20486;-70
2022/04/11 00:42:33;;;;;;;14.23;9.77;;;;;;;3.79;75.91;101804.03;5108457;28;20059;-69
2022/04/11 00:45:03;;;;;;;16.38;9.55;;;;;;;3.77;75.67;101800.50;5104641;28;20100;-73
2022/04/11 00:47:29;;;;;;;13.60;9.75;;;;;;;3.77;76.65;101795.09;5106855;28;20028;-69
2022/04/11 00:49:59;;;;;;;14.20;9.40;;;;;;;3.76;76.68;101796.03;5109328;28;20046;-71
2022/04/11 00:52:29;;;;;;;13.63;9.48;;;;;;;3.73;76.47;101787.16;5095516;28;20063;-70
2022/04/11 00:54:55;;;;;;;12.95;9.48;;;;;;;3.73;76.96;101790.75;5101689;28;20085;-73
2022/04/11 00:57:23;;;;;;;12.82;8.95;;;;;;;3.78;77.04;101796.03;5098970;28;20020;-70
2022/04/11 00:59:48;;;;;;;13.55;9.43;;;;;;;3.74;77.44;101784.44;5109524;28;20032;-71
2022/04/11 01:02:14;;;;;;;13.90;10.13;;;;;;;3.73;77.07;101785.38;5105548;28;20020;-70
2022/04/11 01:04:41;;;;;;;14.50;9.43;;;;;;;3.74;77.58;101786.25;5109285;28;20078;-70
2022/04/11 01:07:07;;;;;;;13.82;9.77;;;;;;;3.73;76.87;101785.38;5108228;27;20466;-70
2022/04/11 01:09:34;;;;;;;15.05;10.57;;;;;;;3.74;76.85;101781.75;5110197;27;20026;-70
2022/04/11 01:12:01;;;;;;;14.48;9.88;;;;;;;3.73;76.21;101780.00;5099807;28;20496;-69
2022/04/11 01:14:26;;;;;;;16.30;10.07;;;;;;;3.72;76.33;101780.91;5109118;28;20053;-72
2022/04/11 01:16:52;;;;;;;14.43;9.80;;;;;;;3.74;76.12;101784.44;5106023;28;20031;-71
2022/04/11 01:19:19;;;;;;;14.57;9.80;;;;;;;3.76;75.92;101785.28;5092516;28;20478;-73
2022/04/11 01:21:48;;;;;;;16.35;9.75;;;;;;;3.76;76.44;101770.94;5108104;28;20043;-70
2022/04/11 01:24:18;;;;;;;14.68;9.98;;;;;;;3.76;75.97;101781.69;5085288;28;20023;-69
2022/04/11 01:26:46;;;;;;;15.30;10.30;;;;;;;3.76;76.03;101779.00;5100988;28;20399;-70
2022/04/11 01:29:11;;;;;;;14.80;10.20;;;;;;;3.75;75.40;101775.44;5105847;28;20118;-70
2022/04/11 01:31:37;;;;;;;18.08;10.75;;;;;;;3.74;74.69;101772.81;5102461;28;20131;-70
2022/04/11 01:34:03;;;;;;;13.82;10.77;;;;;;;3.75;74.65;101779.94;5108794;28;20043;-69
2022/04/11 01:36:28;;;;;;;13.75;9.50;;;;;;;3.74;75.58;101780.88;5108808;28;20497;-70
2022/04/11 01:38:54;;;;;;;14.10;9.82;;;;;;;3.74;75.97;101784.44;5093444;28;20441;-69
2022/04/11 01:41:20;;;;;;;14.82;10.50;;;;;;;3.72;75.05;101780.91;5102807;28;20028;-72
2022/04/11 01:43:46;;;;;;;17.92;11.45;;;;;;;3.72;75.23;101783.59;5099872;28;20032;-69
2022/04/11 01:46:11;;;;;;;14.00;9.90;;;;;;;3.70;74.91;101782.78;5101734;28;20027;-70
2022/04/11 01:48:47;;;;;;;15.90;10.95;;;;;;;3.69;74.90;101778.31;5109155;28;20472;-70
2022/04/11 01:51:13;;;;;;;14.32;10.10;;;;;;;3.70;75.89;101776.50;5102756;28;20063;-69
2022/04/11 01:53:39;;;;;;;14.23;10.13;;;;;;;3.69;75.14;101778.31;5098425;28;20686;-70
2022/04/11 01:56:05;;;;;;;16.95;9.73;;;;;;;3.70;75.38;101784.59;5105519;28;20036;-69
2022/04/11 01:58:32;;;;;;;14.38;10.80;;;;;;;3.69;73.88;101775.63;5074029;28;20040;-71
2022/04/11 02:00:58;;;;;;;14.48;10.02;;;;;;;3.71;74.23;101773.75;5081765;28;20044;-69
2022/04/11 02:03:25;;;;;;;16.15;10.32;;;;;;;3.69;74.45;101762.19;5108460;28;20466;-70
2022/04/11 02:05:50;;;;;;;12.90;9.65;;;;;;;3.68;73.40;101768.47;5103945;28;20024;-73
2022/04/11 02:08:16;;;;;;;16.88;11.27;;;;;;;3.69;73.16;101764.00;5098422;28;20039;-70
2022/04/11 02:10:42;;;;;;;13.98;10.10;;;;;;;3.66;73.70;101758.69;5099346;28;20098;-70
2022/04/11 02:13:09;;;;;;;17.20;11.57;;;;;;;3.67;73.68;101763.13;5111328;28;20043;-73
2022/04/11 02:15:35;;;;;;;14.45;10.65;;;;;;;3.66;73.20;101766.75;5106427;28;20467;-69
2022/04/11 02:18:02;;;;;;;12.18;9.73;;;;;;;3.65;73.59;101768.56;5103781;28;20092;-69
2022/04/11 02:20:27;;;;;;;12.52;9.68;;;;;;;3.61;73.24;101761.50;5093929;28;20076;-73
2022/04/11 02:22:58;;;;;;;15.43;11.20;;;;;;;3.61;73.49;101772.28;5107873;28;20137;-69
2022/04/11 02:25:25;;;;;;;14.30;10.57;;;;;;;3.60;73.18;101770.50;5109414;28;20140;-70
2022/04/11 02:27:54;;;;;;;13.50;11.27;;;;;;;3.59;72.90;101766.06;5107697;28;20027;-69
2022/04/11 02:30:22;;;;;;;14.25;10.50;;;;;;;3.54;73.65;101774.28;5093222;28;20040;-74
2022/04/11 02:32:48;;;;;;;16.42;10.30;;;;;;;3.50;73.40;101764.50;5112606;28;20479;-70
2022/04/11 02:35:14;;;;;;;15.57;9.70;;;;;;;3.47;73.83;101769.09;5095214;28;20028;-73
2022/04/11 02:37:41;;;;;;;14.82;10.45;;;;;;;3.45;74.21;101770.94;5108923;28;20375;-69
2022/04/11 02:40:10;;;;;;;13.90;10.88;;;;;;;3.41;75.12;101770.16;5102396;28;20089;-73
2022/04/11 02:42:42;;;;;;;14.52;10.07;;;;;;;3.36;74.63;101771.19;5090067;28;20055;-73
2022/04/11 02:45:10;;;;;;;15.23;10.13;;;;;;;3.30;75.10;101762.34;5083363;28;20130;-69
2022/04/11 02:47:36;;;;;;;16.80;10.68;;;;;;;3.26;75.94;101770.56;5106251;28;20053;-70
2022/04/11 02:50:02;;;;;;;17.27;10.05;;;;;;;3.20;75.82;101771.59;5108806;28;20038;-73
2022/04/11 02:52:42;;;;;;;15.02;9.88;;;;;;;3.15;75.76;101762.78;5104879;28;20451;-69
2022/04/11 02:55:08;;;;;;;13.02;10.30;;;;;;;3.14;75.59;101765.53;5097349;28;20074;-73
2022/04/11 02:57:36;;;;;;;14.32;10.23;;;;;;;3.09;75.50;101768.34;5110391;28;20023;-69
2022/04/11 03:00:06;;;;;;;15.23;10.57;;;;;;;3.06;75.15;101769.28;5110254;28;20082;-70
2022/04/11 03:02:33;;;;;;;15.77;11.30;;;;;;;3.01;75.39;101756.91;5103382;28;20035;-69
2022/04/11 03:04:58;;;;;;;15.63;11.02;;;;;;;3.00;75.86;101760.53;5093203;28;20320;-73
2022/04/11 03:07:24;;;;;;;14.93;10.07;;;;;;;2.93;76.70;101759.78;5106193;28;20035;-73
2022/04/11 03:09:49;;;;;;;17.60;10.77;;;;;;;2.88;77.22;101760.81;5086858;28;20072;-71
2022/04/11 03:12:15;;;;;;;16.17;10.55;;;;;;;2.81;77.23;101752.94;5090412;28;20031;-70
2022/04/11 03:14:40;;;;;;;14.82;10.27;;;;;;;2.77;76.55;101748.56;5083505;28;20462;-73
2022/04/11 03:17:07;;;;;;;13.32;10.13;;;;;;;2.73;77.07;101754.94;5108668;28;20076;-69
2022/04/11 03:19:34;;;;;;;15.45;10.20;;;;;;;2.70;75.82;101746.94;5111055;28;20479;-73
2022/04/11 03:22:00;;;;;;;15.75;10.98;;;;;;;2.70;76.02;101764.84;5111411;28;20043;-74
2022/04/11 03:24:26;;;;;;;18.23;10.68;;;;;;;2.66;76.20;101756.03;5102223;28;20478;-70
2022/04/11 03:26:51;;;;;;;15.25;10.55;;;;;;;2.65;76.42;101758.72;5102591;28;20475;-69
2022/04/11 03:29:30;;;;;;;13.55;10.40;;;;;;;2.60;76.56;101757.97;5110848;28;20051;-70
2022/04/11 03:31:56;;;;;;;14.93;11.13;;;;;;;2.55;75.92;101755.38;5105616;28;20515;-69
2022/04/11 03:34:22;;;;;;;16.33;10.65;;;;;;;2.57;75.76;101768.78;5107379;28;20161;-70
2022/04/11 03:36:48;;;;;;;13.93;10.93;;;;;;;2.58;75.25;101757.13;5090977;28;20029;-73
2022/04/11 03:39:14;;;;;;;19.98;11.35;;;;;;;2.52;76.41;101758.16;5076351;28;20028;-70
2022/04/11 03:41:43;;;;;;;13.93;10.18;;;;;;;2.48;78.05;101762.72;5088550;28;20499;-73
2022/04/11 03:44:14;;;;;;;14.18;10.25;;;;;;;2.40;78.00;101755.75;5088856;28;20031;-70
2022/04/11 03:46:41;;;;;;;14.02;10.23;;;;;;;2.33;77.89;101762.19;5086233;28;20028;-70
2022/04/11 03:49:10;;;;;;;15.68;9.45;;;;;;;2.27;76.90;101760.53;5108110;28;20027;-71
2022/04/11 03:51:36;;;;;;;14.50;10.27;;;;;;;2.21;76.94;101749.94;5110511;28;20023;-70
2022/04/11 03:54:02;;;;;;;15.32;10.50;;;;;;;2.19;76.69;101750.00;5087904;28;20373;-70
2022/04/11 03:56:28;;;;;;;19.77;11.68;;;;;;;2.14;77.23;101756.38;5094278;28;20043;-70
2022/04/11 03:58:53;;;;;;;14.65;11.10;;;;;;;2.13;77.62;101763.53;5088829;28;20135;-70
2022/04/11 04:01:20;;;;;;;15.02;9.55;;;;;;;2.10;77.64;101766.31;5092490;28;20039;-73
2022/04/11 04:03:46;;;;;;;13.85;10.80;;;;;;;2.08;77.80;101768.13;5090577;28;20028;-70
2022/04/11 04:06:12;;;;;;;13.20;9.80;;;;;;;2.02;78.09;101763.78;5091986;28;20055;-70
2022/04/11 04:08:42;;;;;;;14.85;11.20;;;;;;;2.00;78.36;101759.34;5081665;28;20073;-70
2022/04/11 04:11:18;;;;;;;14.65;10.52;;;;;;;1.99;78.28;101758.47;5107037;28;20046;-70
2022/04/11 04:13:52;;;;;;;15.02;9.90;;;;;;;1.96;78.87;101753.19;5107029;28;20027;-69
2022/04/11 04:16:20;;;;;;;15.73;10.38;;;;;;;1.96;78.81;101758.56;5105079;28;20122;-73
2022/04/11 04:18:52;;;;;;;13.50;9.95;;;;;;;1.89;79.00;101751.56;5093985;28;20032;-69
2022/04/11 04:21:18;;;;;;;14.68;9.73;;;;;;;1.89;79.16;101750.69;5105752;28;20043;-70
2022/04/11 04:23:45;;;;;;;14.40;9.55;;;;;;;1.84;79.58;101749.91;5076847;28;20077;-70
2022/04/11 04:26:10;;;;;;;15.57;11.45;;;;;;;1.78;79.73;101750.91;5107106;28;20031;-70
2022/04/11 04:28:36;;;;;;;15.93;10.18;;;;;;;1.75;79.23;101745.59;5101821;28;20648;-69
2022/04/11 04:31:01;;;;;;;14.15;10.23;;;;;;;1.74;78.95;101749.22;5107534;28;20028;-70
2022/04/11 04:33:30;;;;;;;18.17;10.80;;;;;;;1.73;79.48;101751.03;5110088;28;20028;-69
2022/04/11 04:35:56;;;;;;;15.95;10.07;;;;;;;1.71;79.92;101744.78;5109681;28;20031;-69
2022/04/11 04:38:21;;;;;;;15.95;12.20;;;;;;;1.71;80.21;101747.47;5098116;28;20034;-70
2022/04/11 04:40:50;;;;;;;13.80;10.52;;;;;;;1.67;79.33;101731.47;5081272;28;20402;-70
2022/04/11 04:43:19;;;;;;;15.90;11.18;;;;;;;1.66;79.28;101741.31;5093958;28;20386;-72
2022/04/11 04:45:46;;;;;;;15.57;10.15;;;;;;;1.69;79.02;101745.75;5091917;28;20483;-70
2022/04/11 04:48:25;;;;;;;18.42;10.07;;;;;;;1.69;79.08;101745.75;5109217;28;20081;-70
2022/04/11 04:50:51;;;;;;;17.20;11.25;;;;;;;1.62;79.80;101734.25;5093250;28;20032;-73
2022/04/11 04:53:17;;;;;;;16.63;10.35;;;;;;;1.63;79.63;101737.81;5075970;28;20567;-70
2022/04/11 04:55:45;;;;;;;17.63;11.00;;;;;;;1.60;79.53;101736.09;5102745;28;20080;-70
2022/04/11 04:58:11;;;;;;;18.45;11.38;;;;;;;1.60;79.15;101740.59;5090084;28;20048;-70
2022/04/11 05:00:37;;;;;;;21.30;11.20;;;;;;;1.53;79.80;101724.59;5088325;28;20112;-68
2022/04/11 05:03:04;;;;;;;15.68;9.68;;;;;;;1.60;79.05;101728.06;5082462;28;20036;-70
2022/04/11 05:05:29;;;;;;;14.90;10.35;;;;;;;1.60;79.07;101738.78;5087449;28;20395;-69
2022/04/11 05:07:57;;;;;;;15.73;10.27;;;;;;;1.63;79.53;101732.44;5085895;28;20040;-69
2022/04/11 05:10:26;;;;;;;15.77;11.10;;;;;;;1.63;79.18;101729.75;5080172;28;20122;-70
2022/04/11 05:12:52;;;;;;;17.80;10.60;;;;;;;1.64;79.12;101734.25;5092033;28;20124;-74
2022/04/11 05:15:19;;;;;;;15.73;11.23;;;;;;;1.67;78.81;101732.34;5090224;28;20101;-70
2022/04/11 05:17:49;;;;;;;14.68;10.40;;;;;;;1.73;79.35;101728.69;5089947;28;20039;-70
2022/04/11 05:20:16;;;;;;;19.30;10.50;;;;;;;1.79;79.07;101728.53;5098246;28;20104;-68
2022/04/11 05:22:41;;;;;;;17.25;10.88;;;;;;;1.82;79.18;101728.47;5107721;28;20118;-72
2022/04/11 05:25:08;;;;;;;18.02;10.38;;;;;;;1.80;79.57;101724.94;5102638;28;20031;-73
2022/04/11 05:27:33;;;;;;;14.55;9.90;;;;;;;1.86;79.50;101729.28;5087783;28;20042;-70
2022/04/11 05:29:59;;;;;;;17.60;10.20;;;;;;;1.89;79.54;101727.41;5074917;28;20491;-68
2022/04/11 05:32:25;;;;;;;13.57;10.07;;;;;;;1.93;79.00;101734.47;5070245;28;20036;-69
2022/04/11 05:34:50;;;;;;;13.07;9.90;;;;;;;1.97;78.70;101727.25;5093913;28;20514;-70
2022/04/11 05:37:16;;;;;;;15.48;11.02;;;;;;;2.06;78.47;101732.41;5109607;28;20118;-70
2022/04/11 05:39:41;;;;;;;16.77;11.30;;;;;;;2.08;79.74;101729.69;5092957;28;20023;-70
2022/04/11 05:42:07;;;;;;;24.08;11.88;;;;;;;2.16;79.48;101725.91;5087952;28;20483;-73
2022/04/11 05:44:35;;;;;;;14.77;10.70;;;;;;;2.26;78.96;101727.44;5088007;28;20027;-68
2022/04/11 05:47:00;;;;;;;16.00;10.25;;;;;;;2.36;79.48;101728.09;5090329;28;20100;-70
2022/04/11 05:49:32;;;;;;;17.40;10.85;;;;;;;2.57;79.87;101724.00;5101205;28;20066;-74
2022/04/11 05:51:59;;;;;;;17.63;11.15;;;;;;;2.73;78.24;101728.06;5099741;28;20071;-70
2022/04/11 05:54:24;;;;;;;16.45;10.07;;;;;;;2.89;77.98;101716.91;5085656;28;20466;-73
2022/04/11 05:56:50;;;;;;;15.43;10.50;;;;;;;3.11;77.22;101738.72;5098412;28;20079;-68
2022/04/11 05:59:16;;;;;;;18.30;10.52;;;;;;;3.27;77.13;101732.88;5108759;28;20044;-68
2022/04/11 06:01:41;;;;;;;16.60;10.75;;;;;;;3.49;76.07;101727.75;5107421;28;20502;-68
2022/04/11 06:04:08;;;;;;;15.73;11.05;;;;;;;3.66;75.26;101724.59;5091857;28;20483;-70
2022/04/11 06:06:34;;;;;;;15.40;10.82;;;;;;;3.80;74.69;101724.19;5095656;28;20036;-74
2022/04/11 06:09:00;;;;;;;17.42;10.27;;;;;;;3.99;73.61;101713.72;5097121;28;20028;-70
2022/04/11 06:11:26;;;;;;;17.70;10.73;;;;;;;4.19;72.63;101727.44;5087138;28;20550;-68
2022/04/11 06:13:53;;;;;;;17.05;10.85;;;;;;;4.26;72.36;101720.06;5071065;28;20089;-69
2022/04/11 06:16:18;;;;;;;17.73;10.43;;;;;;;4.46;72.06;101720.28;5088927;28;20044;-73
2022/04/11 06:18:44;;;;;;;15.27;10.07;;;;;;;4.62;71.72;101723.34;5089176;28;20028;-70
2022/04/11 06:21:09;;;;;;;17.77;10.55;;;;;;;4.63;71.02;101716.16;5087150;28;20044;-73
2022/04/11 06:23:34;;;;;;;16.67;10.60;;;;;;;4.65;70.80;101725.91;5089890;28;20073;-70
2022/04/11 06:26:04;;;;;;;13.70;10.25;;;;;;;4.73;70.78;101722.97;5087177;28;20032;-70
2022/04/11 06:28:34;;;;;;;14.88;9.73;;;;;;;5.03;70.94;101726.41;5089021;28;20123;-69
2022/04/11 06:31:00;;;;;;;18.65;10.35;;;;;;;5.99;67.97;101725.56;5075612;28;20124;-70
2022/04/11 06:33:25;;;;;;;17.15;11.18;;;;;;;7.32;65.39;101711.84;5087396;28;20035;-70
2022/04/11 06:35:51;;;;;;;12.88;9.32;;;;;;;8.39;62.23;101719.44;5087409;28;20020;-73
2022/04/11 06:38:17;;;;;;;14.85;9.38;;;;;;;9.29;58.41;101712.13;5088714;28;20024;-73
2022/04/11 06:40:44;;;;;;;15.40;8.68;;;;;;;9.66;56.83;101716.44;5094875;28;20035;-69
2022/04/11 06:43:09;;;;;;;13.95;8.93;;;;;;;9.22;58.51;101724.25;5087301;28;20024;-73
2022/04/11 06:45:53;;;;;;;12.15;8.85;;;;;;;8.71;58.90;101714.25;5088778;28;20572;-70
2022/04/11 06:48:20;;;;;;;10.02;7.65;;;;;;;8.40;59.14;101713.97;5088865;28;20027;-70
2022/04/11 06:50:45;;;;;;;13.45;9.13;;;;;;;8.86;59.44;101724.31;5079974;28;20024;-70
2022/04/11 06:53:14;;;;;;;15.25;7.93;;;;;;;9.38;58.94;101727.91;5091270;28;20036;-70
2022/04/11 06:55:40;;;;;;;12.23;8.50;;;;;;;9.67;57.48;101737.22;5094614;28;20093;-70
2022/04/11 06:58:05;;;;;;;12.93;8.73;;;;;;;9.69;57.30;101734.41;5091114;28;20054;-69
2022/04/11 07:00:30;;;;;;;11.73;8.63;;;;;;;9.38;58.40;101729.75;5092204;28;20118;-69
2022/04/11 07:02:56;;;;;;;14.52;8.68;;;;;;;9.31;58.63;101737.34;5093566;28;20028;-70
2022/04/11 07:05:22;;;;;;;11.57;7.80;;;;;;;9.44;57.72;101734.88;5091474;28;20032;-73
2022/04/11 07:07:47;;;;;;;10.27;8.00;;;;;;;9.64;57.74;101740.09;5093826;28;20054;-70
2022/04/11 07:10:13;;;;;;;12.50;7.53;;;;;;;9.84;57.30;101733.59;5091275;28;20438;-73
2022/04/11 07:12:39;;;;;;;12.45;7.78;;;;;;;10.08;57.41;101727.75;5090638;28;20084;-72
2022/04/11 07:15:06;;;;;;;8.25;7.35;;;;;;;10.03;57.00;101721.69;5092187;28;20032;-73
2022/04/11 07:17:31;;;;;;;10.90;7.95;;;;;;;9.87;56.56;101708.94;5087221;28;20040;-72
2022/04/11 07:19:57;;;;;;;14.93;7.88;;;;;;;9.73;57.68;101716.97;5091601;28;20085;-69
2022/04/11 07:22:22;;;;;;;11.75;8.15;;;;;;;9.74;57.57;101709.69;5092583;28;20067;-69
2022/04/11 07:24:48;;;;;;;9.45;7.10;;;;;;;9.62;57.23;101711.25;5090214;28;20043;-68
2022/04/11 07:27:13;;;;;;;9.57;7.00;;;;;;;9.47;57.59;101714.81;5090367;28;20067;-72
2022/04/11 07:29:39;;;;;;;14.90;8.32;;;;;;;9.41;58.25;101711.44;5102555;28;20027;-69
2022/04/11 07:32:04;;;;;;;11.65;7.38;;;;;;;9.44;57.70;101711.28;5099035;28;20403;-70
2022/04/11 07:34:30;;;;;;;9.73;7.32;;;;;;;9.57;56.73;101705.22;5110562;28;20100;-69
2022/04/11 07:36:55;;;;;;;9.95;7.43;;;;;;;10.41;56.00;101705.94;5101224;28;20062;-68
2022/04/11 07:39:23;;;;;;;12.32;8.07;;;;;;;10.95;55.25;101704.50;5098230;28;20047;-69
2022/04/11 07:41:49;;;;;;;9.50;6.95;;;;;;;11.59;54.11;101696.94;5105786;28;20483;-70
2022/04/11 07:44:14;;;;;;;9.80;6.80;;;;;;;12.00;52.39;101690.72;5105788;28;20035;-70
2022/04/11 07:46:39;;;;;;;12.25;6.63;;;;;;;11.99;53.08;101686.25;5098428;28;20483;-72
2022/04/11 07:49:05;;;;;;;7.22;5.93;;;;;;;11.93;52.05;101684.75;5108461;28;20402;-68
2022/04/11 07:51:30;;;;;;;11.88;6.50;;;;;;;11.97;53.27;101696.34;5099671;28;20486;-68
2022/04/11 07:53:55;;;;;;;9.50;6.75;;;;;;;12.15;52.18;101686.09;5104055;28;20063;-69
2022/04/11 07:56:21;;;;;;;11.00;7.43;;;;;;;12.15;51.52;101689.72;5107245;28;20023;-72
2022/04/11 07:58:46;;;;;;;9.98;7.57;;;;;;;12.06;52.84;101689.44;5100903;28;20492;-68
2022/04/11 08:01:16;;;;;;;10.30;6.07;;;;;;;12.11;51.79;101690.88;5103184;28;20483;-70
2022/04/11 08:03:43;;;;;;;10.30;5.68;;;;;;;12.05;53.65;101691.28;5099982;28;20394;-68
2022/04/11 08:06:09;;;;;;;8.27;6.10;;;;;;;12.25;52.89;101682.66;5103404;27;20103;-68
2022/04/11 08:08:34;;;;;;;11.35;6.50;;;;;;;12.40;51.38;101672.59;5093082;27;20169;-68
2022/04/11 08:10:59;;;;;;;9.52;6.05;;;;;;;12.57;50.54;101670.59;5098498;28;20085;-69
2022/04/11 08:13:25;;;;;;;7.88;6.10;;;;;;;12.76;50.72;101668.34;5098283;28;20036;-72
2022/04/11 08:15:50;;;;;;;9.68;5.38;;;;;;;12.65;49.25;101660.91;5104240;28;20027;-69
2022/04/11 08:18:15;;;;;;;9.82;5.85;;;;;;;12.73;49.92;101660.38;5110741;28;20035;-69
2022/04/11 08:20:41;;;;;;;10.02;5.63;;;;;;;12.77;49.71;101662.75;5110101;28;20496;-71
2022/04/11 08:23:06;;;;;;;8.95;6.70;;;;;;;12.81;49.63;101657.09;5105299;27;20479;-68
2022/04/11 08:25:31;;;;;;;7.70;5.50;;;;;;;12.80;49.78;101661.69;5098717;28;20042;-72
2022/04/11 08:27:57;;;;;;;9.00;5.80;;;;;;;12.84;48.80;101645.97;5109372;27;20043;-72
2022/04/11 08:30:22;;;;;;;9.27;5.82;;;;;;;12.98;49.19;101665.88;5094248;28;20019;-70
2022/04/11 08:32:50;;;;;;;9.48;5.63;;;;;;;13.19;48.72;101662.63;5103449;28;20035;-70
2022/04/11 08:35:17;;;;;;;9.85;5.80;;;;;;;13.22;47.86;101660.59;5111419;28;20028;-67
2022/04/11 08:37:43;;;;;;;9.35;5.40;;;;;;;13.36;47.48;101648.69;5093151;28;20039;-72
2022/04/11 08:40:18;;;;;;;12.55;5.30;;;;;;;13.58;48.09;101642.56;5094178;28;20035;-68
2022/04/11 08:42:44;;;;;;;9.95;5.63;;;;;;;13.98;48.09;101650.56;5106880;28;20077;-68
2022/04/11 08:45:15;;;;;;;9.30;5.32;;;;;;;14.09;46.74;101649.78;5110651;28;20359;-70
2022/04/11 08:47:41;;;;;;;10.18;5.30;;;;;;;14.25;48.20;101640.31;5109646;28;20042;-68
2022/04/11 08:50:07;;;;;;;9.93;5.00;;;;;;;14.16;43.93;101651.94;5103007;28;20030;-67
2022/04/11 08:52:35;;;;;;;8.50;5.05;;;;;;;14.04;45.89;101640.06;5110930;28;20035;-70
2022/04/11 08:55:01;;;;;;;9.38;5.15;;;;;;;14.13;42.52;101645.81;5103251;28;20032;-69
2022/04/11 08:57:27;;;;;;;9.02;5.20;;;;;;;13.99;45.55;101645.00;5102693;28;20031;-68
2022/04/11 08:59:52;;;;;;;13.20;4.95;;;;;;;14.20;46.98;101638.91;5110857;28;20042;-70
2022/04/11 09:02:18;;;;;;;7.68;4.50;;;;;;;14.18;45.63;101641.75;5095605;28;20051;-73
2022/04/11 09:04:51;;;;;;;9.43;4.35;;;;;;;14.30;45.57;101639.97;5099266;28;20036;-73
2022/04/11 09:07:16;;;;;;;7.88;4.38;;;;;;;14.21;44.69;101657.94;5095445;28;20145;-68
2022/04/11 09:09:42;;;;;;;51.80;10.57;;;;;;;14.28;45.01;101652.91;5093734;28;20099;-69
2022/04/11 09:12:15;;;;;;;8.68;3.92;;;;;;;14.46;43.87;101651.50;5098730;28;20027;-68
2022/04/11 09:14:43;;;;;;;4.68;4.07;;;;;;;14.66;45.15;101649.13;5092203;28;20023;-69
2022/04/11 09:17:11;;;;;;;7.60;3.95;;;;;;;14.97;43.25;101632.06;5095123;28;20298;-68
2022/04/11 09:19:38;;;;;;;6.15;3.47;;;;;;;15.12;43.36;101631.84;5092019;28;20134;-70
2022/04/11 09:22:05;;;;;;;8.13;3.78;;;;;;;15.19;41.24;101628.50;5089835;28;20114;-68
2022/04/11 09:24:31;;;;;;;5.65;4.15;;;;;;;15.05;40.40;101626.84;5094203;28;20020;-73
2022/04/11 09:26:58;;;;;;;4.65;3.85;;;;;;;14.87;43.51;101622.81;5090834;28;20113;-68
2022/04/11 09:29:24;;;;;;;8.00;4.47;;;;;;;14.98;41.59;101613.75;5102876;28;20038;-70
2022/04/11 09:31:55;;;;;;;5.88;4.00;;;;;;;15.12;40.89;101601.72;5104417;28;20028;-70
2022/04/11 09:34:27;;;;;;;7.50;3.63;;;;;;;15.07;40.65;101604.81;5097718;28;20049;-71
2022/04/11 09:36:55;;;;;;;7.55;3.47;;;;;;;15.12;40.81;101604.44;5100563;28;20042;-70
2022/04/11 09:39:27;;;;;;;5.95;3.22;;;;;;;15.31;42.71;101597.38;5096596;28;20019;-68
2022/04/11 09:41:54;;;;;;;7.15;3.55;;;;;;;15.44;41.62;101612.84;5096808;28;20085;-70
2022/04/11 09:44:30;;;;;;;6.25;3.10;;;;;;;15.44;40.94;101591.78;5105233;28;20461;-69
2022/04/11 09:46:58;;;;;;;8.68;3.67;;;;;;;15.07;39.13;101596.59;5105450;28;20024;-73
2022/04/11 09:49:24;;;;;;;10.70;3.10;;;;;;;15.01;39.56;101595.22;5105221;28;20046;-73
2022/04/11 09:52:09;;;;;;;7.38;3.05;;;;;;;15.01;39.80;101602.53;5103248;28;20479;-70
2022/04/11 09:54:45;;;;;;;6.20;3.05;;;;;;;15.06;39.97;101592.09;5093226;28;20064;-74
2022/04/11 09:57:13;;;;;;;6.30;3.55;;;;;;;15.18;42.23;101585.63;5091356;28;20024;-70
2022/04/11 09:59:41;;;;;;;4.03;3.30;;;;;;;15.38;40.03;101577.66;5089725;28;20055;-70
2022/04/11 10:02:10;;;;;;;12.20;3.80;;;;;;;15.62;39.20;101577.53;5096794;28;20042;-70
2022/04/11 10:04:36;;;;;;;6.65;3.42;;;;;;;15.79;36.76;101571.56;5095251;28;20040;-71
2022/04/11 10:07:03;;;;;;;9.10;3.38;;;;;;;15.95;37.60;101571.19;5100043;28;20295;-68
2022/04/11 10:09:30;;;;;;;7.45;3.80;;;;;;;15.91;37.60;101570.56;5097598;28;20509;-68
2022/04/11 10:11:56;;;;;;;5.95;3.40;;;;;;;16.01;37.55;101573.41;5094697;28;20077;-73
2022/04/11 10:14:26;;;;;;;11.05;3.88;;;;;;;16.11;37.74;101568.88;5109925;28;20092;-67
2022/04/11 10:16:55;;;;;;;6.30;3.17;;;;;;;16.16;37.53;101572.09;5116791;28;20038;-73
2022/04/11 10:19:31;;;;;;;7.88;3.40;;;;;;;16.14;36.48;101567.78;5109722;28;20039;-69
2022/04/11 10:22:05;;;;;;;5.85;3.40;;;;;;;16.34;36.44;101564.19;5106869;28;20122;-67
2022/04/11 10:24:34;;;;;;;9.48;3.30;;;;;;;16.22;37.01;101574.31;5091137;28;20115;-73
2022/04/11 10:27:23;;;;;;;5.90;3.15;;;;;;;15.80;37.30;101565.94;5094160;28;20050;-71
2022/04/11 10:29:50;;;;;;;8.60;3.83;;;;;;;15.90;38.88;101559.69;5110022;28;20517;-71
2022/04/11 10:32:21;;;;;;;7.75;3.47;;;;;;;16.05;37.57;101561.19;5104133;28;20027;-67
2022/04/11 10:34:47;;;;;;;5.25;3.10;;;;;;;16.29;36.71;101553.59;5113831;28;20032;-68
2022/04/11 10:37:12;;;;;;;6.63;3.38;;;;;;;16.55;37.08;101561.47;5113540;28;20536;-71
2022/04/11 10:39:39;;;;;;;5.15;3.92;;;;;;;16.77;35.75;101555.88;5104734;28;20026;-69
2022/04/11 10:42:13;;;;;;;7.57;3.40;;;;;;;16.93;36.81;101563.69;5104211;28;20060;-68
2022/04/11 10:44:42;;;;;;;5.03;3.47;;;;;;;16.90;36.31;101550.19;5113523;28;20478;-71
2022/04/11 10:47:08;;;;;;;8.45;3.75;;;;;;;16.81;35.97;101559.25;5107434;28;20041;-69
2022/04/11 10:49:48;;;;;;;6.10;3.78;;;;;;;16.73;36.44;101557.16;5109139;28;20090;-73
2022/04/11 10:52:38;;;;;;;6.05;3.92;;;;;;;16.54;36.91;101535.88;5106005;28;20512;-74
2022/04/11 10:55:17;;;;;;;7.50;4.03;;;;;;;16.44;35.36;101531.31;5092268;28;20032;-68
2022/04/11 10:57:48;;;;;;;8.95;3.60;;;;;;;16.11;36.87;101535.06;5097159;28;20146;-71
2022/04/11 11:00:14;;;;;;;7.65;3.58;;;;;;;15.99;36.01;101535.13;5100835;28;20047;-68
2022/04/11 11:02:59;;;;;;;8.48;3.58;;;;;;;15.86;37.17;101528.91;5094163;28;20039;-70
2022/04/11 11:05:25;;;;;;;7.30;3.40;;;;;;;16.03;36.28;101525.59;5101771;28;20443;-70
2022/04/11 11:08:09;;;;;;;7.75;3.40;;;;;;;16.03;37.56;101517.38;5093722;28;20120;-69
2022/04/11 11:10:43;;;;;;;5.72;2.78;;;;;;;16.16;36.12;101500.72;5092117;28;20039;-68
2022/04/11 11:13:36;;;;;;;6.13;3.00;;;;;;;16.41;37.69;101506.84;5094604;28;20028;-68
2022/04/11 11:16:03;;;;;;;8.00;3.10;;;;;;;16.29;33.39;101504.16;5090065;28;20059;-71
2022/04/11 11:18:50;;;;;;;7.18;3.28;;;;;;;16.16;35.72;101497.97;5105759;28;20063;-70
2022/04/11 11:21:44;;;;;;;5.78;3.08;;;;;;;16.26;33.92;101492.56;5091460;28;20506;-70
2022/04/11 11:24:11;;;;;;;3.50;3.20;;;;;;;16.45;35.47;101494.59;5090325;28;20031;-68